Time;durP1;ratioP1;P1;durP2;ratioP2;P2;SDS_P1;SDS_P2;PMS_P1;PMS_P2;Temp;Humidity;BMP_temperature;BMP_pressure;BME280_temperature;BME280_humidity;BME280_pressure;Samples;Min_cycle;Max_cycle;Signal;HPM_P1;HPM_P2
2022/06/04 00:00:22;;;;;;;12.13;2.47;;;;;;;46.30;6.99;100292.22;5093969;28;20117;-67
2022/06/04 00:02:50;;;;;;;8.95;2.17;;;;;;;46.36;7.52;100290.13;5092778;28;20060;-66
2022/06/04 00:05:23;;;;;;;8.15;2.33;;;;;;;45.36;7.02;100287.13;5094805;28;20581;-66
2022/06/04 00:07:53;;;;;;;;;;;;;;;42.79;8.42;100294.94;5093433;28;20082;-67
2022/06/04 00:15:54;;;;;;;12.25;2.70;;;;;;;44.71;7.68;100287.03;5074062;28;20112;-68
2022/06/04 00:18:24;;;;;;;13.07;2.67;;;;;;;44.28;8.48;100284.13;5074311;28;20104;-68
2022/06/04 00:20:52;;;;;;;8.60;2.50;;;;;;;44.33;8.41;100277.66;5092138;28;20039;-69
2022/06/04 00:23:19;;;;;;;16.38;2.92;;;;;;;44.05;8.44;100279.50;5094019;28;20054;-69
2022/06/04 00:25:49;;;;;;;13.80;2.80;;;;;;;42.52;9.39;100275.31;5093702;28;20081;-69
2022/06/04 00:28:18;;;;;;;12.85;2.50;;;;;;;40.93;9.92;100280.63;5093857;28;20028;-68
2022/06/04 00:30:45;;;;;;;12.88;2.72;;;;;;;42.15;9.13;100280.69;5093370;28;20051;-68
2022/06/04 00:33:13;;;;;;;10.40;2.42;;;;;;;41.26;9.17;100286.28;5093665;28;20051;-68
2022/06/04 00:35:41;;;;;;;8.15;2.08;;;;;;;41.50;9.21;100279.75;5076226;28;20028;-68
2022/06/04 00:38:08;;;;;;;8.40;2.00;;;;;;;40.43;9.80;100277.44;5075922;28;20020;-68
2022/06/04 00:41:03;;;;;;;11.23;2.30;;;;;;;40.64;9.63;100280.50;5092159;28;20436;-67
2022/06/04 00:43:32;;;;;;;8.13;1.98;;;;;;;40.60;9.66;100263.56;5092218;28;20382;-65
2022/06/04 00:46:26;;;;;;;16.45;2.42;;;;;;;41.19;9.71;100277.28;5093580;28;20020;-71
2022/06/04 00:48:53;;;;;;;13.68;2.47;;;;;;;41.62;9.24;100261.53;5091807;28;20028;-68
2022/06/04 00:51:21;;;;;;;17.30;2.95;;;;;;;40.58;9.96;100262.47;5093352;28;20039;-67
2022/06/04 00:53:47;;;;;;;11.65;2.60;;;;;;;41.09;9.74;100252.97;5093764;28;20042;-67
2022/06/04 00:56:30;;;;;;;8.88;2.40;;;;;;;41.23;9.76;100253.00;5092791;28;20024;-68
2022/06/04 00:59:06;;;;;;;11.43;2.50;;;;;;;40.99;10.30;100253.03;5093061;28;20027;-68
2022/06/04 01:02:17;;;;;;;16.13;2.63;;;;;;;40.72;10.06;100251.13;5094335;28;20039;-68
2022/06/04 01:04:53;;;;;;;15.30;2.75;;;;;;;40.58;10.53;100256.75;5060687;28;20052;-69
2022/06/04 01:07:49;;;;;;;16.42;2.70;;;;;;;40.64;10.37;100252.00;5073958;28;20089;-69
2022/06/04 01:10:40;;;;;;;13.32;2.90;;;;;;;40.64;10.49;100252.00;5073922;28;20048;-68
2022/06/04 01:13:24;;;;;;;17.27;2.33;;;;;;;40.50;10.84;100253.50;5073823;28;20036;-69
2022/06/04 01:16:02;;;;;;;13.73;2.70;;;;;;;39.59;10.52;100265.91;5073983;28;20032;-68
2022/06/04 01:19:14;;;;;;;14.07;2.70;;;;;;;39.16;11.21;100276.34;5074151;28;20032;-70
2022/06/04 01:22:12;;;;;;;17.33;3.90;;;;;;;38.58;11.77;100274.25;5072583;28;20049;-68
2022/06/04 01:25:03;;;;;;;15.60;3.08;;;;;;;38.31;11.91;100274.19;5073038;28;20600;-68
2022/06/04 01:27:37;;;;;;;16.98;3.65;;;;;;;38.23;12.07;100273.66;5073794;28;20459;-69
2022/06/04 01:30:08;;;;;;;10.38;3.03;;;;;;;37.91;12.34;100279.78;5072568;28;20036;-69
2022/06/04 01:32:56;;;;;;;9.23;2.83;;;;;;;37.89;12.36;100283.09;5072261;28;20036;-69
2022/06/04 01:35:43;;;;;;;12.68;3.55;;;;;;;37.70;12.74;100282.13;5073439;28;20032;-68
2022/06/04 01:38:30;;;;;;;13.70;3.38;;;;;;;37.36;12.78;100279.38;5072800;28;20033;-68
2022/06/04 01:41:03;;;;;;;12.38;3.20;;;;;;;37.49;12.65;100286.56;5054627;28;20178;-68
2022/06/04 01:43:50;;;;;;;11.45;3.17;;;;;;;37.36;12.73;100288.66;5073657;28;20116;-69
2022/06/04 01:46:41;;;;;;;12.35;3.00;;;;;;;37.31;12.97;100300.56;5071999;28;20062;-68
2022/06/04 01:49:32;;;;;;;11.07;2.75;;;;;;;37.34;13.43;100301.69;5073478;28;20175;-69
2022/06/04 01:52:08;;;;;;;13.57;3.10;;;;;;;37.08;13.42;100312.31;5055619;28;20037;-69
2022/06/04 01:54:47;;;;;;;9.95;3.30;;;;;;;36.83;13.88;100310.31;5055597;28;20033;-68
2022/06/04 01:57:35;;;;;;;16.73;3.72;;;;;;;36.71;13.66;100314.72;5073362;28;20056;-69
2022/06/04 02:00:15;;;;;;;15.38;3.45;;;;;;;36.47;14.06;100327.63;5072193;28;20542;-70
2022/06/04 02:03:05;;;;;;;18.25;3.72;;;;;;;36.30;14.15;100326.91;5073234;28;20389;-69
2022/06/04 02:05:40;;;;;;;16.95;3.85;;;;;;;36.15;13.25;100331.41;5071866;28;20043;-69
2022/06/04 02:08:09;;;;;;;13.57;3.20;;;;;;;36.18;13.07;100331.31;5055354;28;20383;-69
2022/06/04 02:10:47;;;;;;;18.25;3.88;;;;;;;36.05;13.40;100338.97;5073097;28;20020;-69
2022/06/04 02:13:15;;;;;;;19.80;3.90;;;;;;;35.82;13.82;100342.03;5071744;28;20036;-67
2022/06/04 02:15:45;;;;;;;11.90;3.13;;;;;;;35.56;14.05;100355.31;5091860;28;20028;-69
2022/06/04 02:18:13;;;;;;;17.95;3.85;;;;;;;35.36;15.01;100358.22;5093419;28;20483;-70
2022/06/04 02:20:39;;;;;;;16.77;3.85;;;;;;;35.18;15.53;100364.31;5092247;28;20073;-70
2022/06/04 02:23:07;;;;;;;18.45;3.78;;;;;;;34.95;15.87;100365.28;5093177;28;20093;-70
2022/06/04 02:25:34;;;;;;;18.60;3.78;;;;;;;34.68;16.02;100378.84;5092298;28;20040;-70
2022/06/04 02:28:02;;;;;;;11.18;3.45;;;;;;;34.59;16.40;100381.44;5093935;28;20039;-70
2022/06/04 02:30:43;;;;;;;18.40;3.65;;;;;;;34.37;16.38;100384.75;5094322;28;20077;-69
2022/06/04 02:33:23;;;;;;;20.77;3.67;;;;;;;34.28;16.64;100398.59;5094785;28;20043;-69
2022/06/04 02:36:00;;;;;;;19.45;3.47;;;;;;;34.04;16.87;100412.00;5095331;28;20043;-67
2022/06/04 02:38:34;;;;;;;17.00;3.67;;;;;;;34.12;16.61;100405.00;5080032;28;20032;-69
2022/06/04 02:41:16;;;;;;;37.15;4.50;;;;;;;33.90;16.27;100403.81;5097895;28;20370;-69
2022/06/04 02:43:56;;;;;;;18.27;5.68;;;;;;;33.83;16.49;100409.56;5094028;28;20487;-67
2022/06/04 02:46:40;;;;;;;16.92;3.97;;;;;;;33.58;17.66;100415.66;5093494;28;20478;-69
2022/06/04 02:49:21;;;;;;;21.20;2.72;;;;;;;33.77;16.44;100417.72;5093130;28;20032;-68
2022/06/04 02:51:53;;;;;;;25.90;3.50;;;;;;;33.63;15.88;100420.81;5092027;28;20394;-68
2022/06/04 02:54:31;;;;;;;24.33;3.60;;;;;;;33.64;15.91;100422.41;5096966;28;20059;-68
2022/06/04 02:57:00;;;;;;;15.57;3.28;;;;;;;33.74;14.60;100420.59;5096923;28;20063;-68
2022/06/04 02:59:29;;;;;;;16.25;2.80;;;;;;;33.74;14.90;100432.66;5096749;28;20019;-68
2022/06/04 03:02:00;;;;;;;12.20;1.88;;;;;;;34.00;14.34;100421.75;5095475;28;20093;-69
2022/06/04 03:04:28;;;;;;;10.80;2.00;;;;;;;33.89;14.54;100422.75;5094711;28;20422;-67
2022/06/04 03:07:05;;;;;;;11.00;1.83;;;;;;;33.42;14.47;100430.44;5095538;28;20031;-70
2022/06/04 03:09:32;;;;;;;15.23;2.50;;;;;;;33.35;14.90;100431.31;5096665;28;20032;-68
2022/06/04 03:11:58;;;;;;;16.05;2.35;;;;;;;33.25;14.43;100425.84;5096843;28;20524;-69
2022/06/04 03:14:25;;;;;;;11.82;2.35;;;;;;;33.20;14.62;100435.56;5096247;28;20036;-68
2022/06/04 03:16:52;;;;;;;14.40;2.08;;;;;;;33.32;14.73;100437.81;5096685;28;20048;-68
2022/06/04 03:19:19;;;;;;;17.75;2.63;;;;;;;33.14;14.42;100448.53;5095473;28;20064;-68
2022/06/04 03:21:45;;;;;;;12.10;1.60;;;;;;;33.03;14.17;100443.06;5096099;28;20044;-70
2022/06/04 03:24:14;;;;;;;12.50;2.38;;;;;;;33.00;14.39;100445.94;5096333;28;20107;-67
2022/06/04 03:26:42;;;;;;;10.82;1.98;;;;;;;32.90;14.24;100447.72;5094917;28;20036;-68
2022/06/04 03:29:09;;;;;;;12.98;2.10;;;;;;;32.92;14.93;100448.06;5096298;28;20524;-69
2022/06/04 03:31:36;;;;;;;19.30;2.08;;;;;;;32.97;14.53;100449.59;5078123;28;20389;-69
2022/06/04 03:34:04;;;;;;;12.65;2.45;;;;;;;32.83;15.01;100461.06;5095885;28;20527;-68
2022/06/04 03:36:32;;;;;;;15.32;2.33;;;;;;;32.85;15.00;100450.97;5096149;28;20052;-68
2022/06/04 03:39:00;;;;;;;19.20;2.05;;;;;;;32.80;14.93;100456.25;5096300;28;20012;-67
2022/06/04 03:41:27;;;;;;;13.27;1.95;;;;;;;32.43;15.64;100450.31;5094992;28;20104;-68
2022/06/04 03:43:54;;;;;;;11.88;2.00;;;;;;;32.56;15.95;100464.63;5096068;28;20462;-69
2022/06/04 03:46:26;;;;;;;10.70;1.88;;;;;;;32.39;15.50;100460.00;5094953;28;20044;-68
2022/06/04 03:48:57;;;;;;;16.75;2.03;;;;;;;32.41;15.82;100469.63;5094748;28;20078;-70
2022/06/04 03:51:27;;;;;;;7.80;1.90;;;;;;;32.42;15.44;100476.03;5095696;28;20390;-69
2022/06/04 03:53:54;;;;;;;14.45;2.42;;;;;;;32.43;15.54;100478.44;5094608;28;20494;-68
2022/06/04 03:56:22;;;;;;;12.32;2.45;;;;;;;32.25;16.27;100480.63;5095569;28;20032;-67
2022/06/04 03:58:48;;;;;;;13.10;2.17;;;;;;;32.16;16.03;100483.94;5095727;28;20034;-69
2022/06/04 04:01:18;;;;;;;8.70;2.22;;;;;;;32.08;16.41;100484.44;5095720;28;20028;-67
2022/06/04 04:03:45;;;;;;;12.02;3.03;;;;;;;32.06;16.43;100487.66;5094420;28;20029;-69
2022/06/04 04:06:33;;;;;;;15.57;4.47;;;;;;;32.00;16.57;100489.34;5094016;28;20036;-69
2022/06/04 04:09:01;;;;;;;11.07;2.35;;;;;;;32.07;16.86;100494.06;5092912;28;20070;-68
2022/06/04 04:11:28;;;;;;;10.65;2.60;;;;;;;31.83;16.86;100495.94;5094122;28;20028;-68
2022/06/04 04:13:55;;;;;;;17.92;5.75;;;;;;;31.55;17.46;100503.34;5094251;28;20043;-68
2022/06/04 04:16:22;;;;;;;12.00;3.20;;;;;;;31.46;17.27;100505.84;5094179;28;20070;-68
2022/06/04 04:18:49;;;;;;;14.85;3.30;;;;;;;31.27;17.83;100509.19;5095229;28;20031;-68
2022/06/04 04:21:19;;;;;;;21.33;3.70;;;;;;;31.52;17.80;100509.00;5095071;28;20440;-68
2022/06/04 04:23:46;;;;;;;12.13;3.85;;;;;;;31.32;18.18;100511.53;5095296;28;20595;-68
2022/06/04 04:26:14;;;;;;;23.80;11.63;;;;;;;31.20;18.18;100517.63;5077094;28;20509;-67
2022/06/04 04:28:41;;;;;;;17.20;3.65;;;;;;;31.16;18.75;100514.81;5093950;28;20028;-67
2022/06/04 04:31:14;;;;;;;19.52;5.50;;;;;;;30.98;18.88;100520.53;5094024;28;20052;-68
2022/06/04 04:33:41;;;;;;;15.57;3.35;;;;;;;31.01;18.96;100529.34;5093787;28;20093;-68
2022/06/04 04:36:09;;;;;;;12.60;2.60;;;;;;;31.07;18.81;100524.91;5073420;28;20090;-69
2022/06/04 04:38:36;;;;;;;9.48;2.45;;;;;;;31.26;18.53;100527.25;5073464;28;20032;-69
2022/06/04 04:41:08;;;;;;;11.10;2.60;;;;;;;31.24;18.58;100529.66;5090435;28;20043;-69
2022/06/04 04:43:34;;;;;;;10.35;2.55;;;;;;;31.03;18.45;100529.72;5074762;28;20036;-69
2022/06/04 04:46:07;;;;;;;13.35;2.15;;;;;;;31.19;18.02;100530.06;5074504;28;20021;-69
2022/06/04 04:48:34;;;;;;;10.93;2.28;;;;;;;30.96;17.95;100533.38;5074489;28;20036;-69
2022/06/04 04:51:01;;;;;;;15.02;2.35;;;;;;;30.76;18.55;100541.50;5074502;28;20020;-69
2022/06/04 04:53:28;;;;;;;7.60;2.53;;;;;;;30.70;18.88;100534.69;5093330;28;20031;-69
2022/06/04 04:55:54;;;;;;;14.73;2.45;;;;;;;30.63;18.99;100523.50;5093321;28;20113;-69
2022/06/04 04:58:21;;;;;;;8.85;2.60;;;;;;;30.45;19.20;100531.13;5093222;28;20044;-68
2022/06/04 05:00:48;;;;;;;16.50;4.45;;;;;;;30.32;19.47;100534.38;5094490;28;20119;-67
2022/06/04 05:03:14;;;;;;;13.65;3.42;;;;;;;30.42;19.85;100534.75;5093284;28;20118;-69
2022/06/04 05:05:41;;;;;;;17.02;3.78;;;;;;;30.30;19.76;100539.59;5092552;28;20094;-68
2022/06/04 05:08:08;;;;;;;15.80;4.32;;;;;;;30.16;20.21;100533.19;5076422;28;20158;-69
2022/06/04 05:10:35;;;;;;;17.20;5.22;;;;;;;30.20;19.74;100537.63;5093025;28;20378;-68
2022/06/04 05:13:01;;;;;;;17.23;7.93;;;;;;;30.06;19.73;100527.22;5094314;28;20035;-68
2022/06/04 05:15:28;;;;;;;10.52;4.10;;;;;;;29.99;19.89;100543.22;5094185;28;20027;-68
2022/06/04 05:17:55;;;;;;;16.65;3.53;;;;;;;29.96;19.75;100533.59;5094270;28;20032;-69
2022/06/04 05:20:21;;;;;;;16.58;3.72;;;;;;;29.90;19.98;100540.00;5093110;28;20016;-69
2022/06/04 05:22:48;;;;;;;10.35;3.00;;;;;;;29.83;19.93;100546.41;5093923;28;20035;-69
2022/06/04 05:25:15;;;;;;;14.73;3.30;;;;;;;29.88;19.70;100542.41;5092781;28;20036;-70
2022/06/04 05:27:42;;;;;;;12.90;3.10;;;;;;;29.86;19.86;100554.03;5094024;28;20028;-68
2022/06/04 05:30:09;;;;;;;13.75;2.70;;;;;;;29.80;20.03;100533.19;5076378;28;20399;-68
2022/06/04 05:32:35;;;;;;;14.73;3.08;;;;;;;29.68;19.48;100540.00;5094062;28;20378;-69
2022/06/04 05:35:02;;;;;;;15.75;2.70;;;;;;;29.73;19.61;100545.22;5093325;28;20038;-68
2022/06/04 05:37:29;;;;;;;10.07;2.50;;;;;;;29.82;19.61;100533.63;5093864;28;20042;-68
2022/06/04 05:39:57;;;;;;;9.80;2.55;;;;;;;29.82;19.77;100544.03;5093761;28;20463;-69
2022/06/04 05:42:23;;;;;;;11.75;3.38;;;;;;;29.84;19.80;100548.03;5093661;28;20494;-68
2022/06/04 05:44:51;;;;;;;9.02;3.05;;;;;;;29.82;19.45;100544.03;5086683;28;20035;-71
2022/06/04 05:47:18;;;;;;;10.60;2.80;;;;;;;29.81;19.80;100550.81;5083007;28;20032;-68
2022/06/04 05:49:45;;;;;;;9.50;3.30;;;;;;;29.67;20.06;100544.00;5073569;28;20077;-69
2022/06/04 05:52:13;;;;;;;7.38;3.53;;;;;;;29.67;19.77;100555.22;5077699;28;20547;-69
2022/06/04 05:54:40;;;;;;;14.68;6.45;;;;;;;29.78;19.94;100552.41;5093907;28;20071;-70
2022/06/04 05:57:06;;;;;;;13.10;7.80;;;;;;;29.68;20.04;100547.63;5089748;28;20482;-70
2022/06/04 05:59:33;;;;;;;11.80;7.80;;;;;;;29.63;19.88;100548.81;5086545;28;20032;-68
2022/06/04 06:02:01;;;;;;;18.73;9.20;;;;;;;29.39;19.97;100547.53;5055991;28;20028;-68
2022/06/04 06:04:28;;;;;;;17.92;9.02;;;;;;;29.48;19.54;100545.19;5075000;28;20016;-69
2022/06/04 06:06:58;;;;;;;13.65;6.47;;;;;;;29.39;20.07;100544.72;5089688;28;20100;-70
2022/06/04 06:09:25;;;;;;;14.65;4.70;;;;;;;29.29;20.15;100548.31;5092074;28;20116;-68
2022/06/04 06:11:54;;;;;;;8.25;4.00;;;;;;;29.24;20.21;100539.50;5075329;28;20036;-67
2022/06/04 06:14:21;;;;;;;15.13;4.20;;;;;;;29.09;20.10;100542.28;5093318;28;20043;-70
2022/06/04 06:16:49;;;;;;;13.38;4.05;;;;;;;29.12;20.46;100546.28;5090507;28;20112;-69
2022/06/04 06:19:19;;;;;;;15.05;3.05;;;;;;;28.99;20.26;100545.84;5091407;28;20482;-68
2022/06/04 06:21:45;;;;;;;11.02;2.60;;;;;;;28.82;20.18;100538.13;5087653;28;20044;-68
2022/06/04 06:24:20;;;;;;;8.13;2.50;;;;;;;28.95;20.01;100539.44;5089429;28;20390;-67
2022/06/04 06:26:52;;;;;;;6.13;2.53;;;;;;;29.02;20.07;100541.44;5092655;28;20367;-70
2022/06/04 06:29:20;;;;;;;13.38;2.25;;;;;;;28.91;20.10;100538.63;5094775;28;20020;-67
2022/06/04 06:31:46;;;;;;;8.52;1.70;;;;;;;28.73;20.23;100540.50;5092851;28;20091;-69
2022/06/04 06:34:13;;;;;;;11.13;2.85;;;;;;;28.77;20.30;100546.91;5095055;28;20592;-70
2022/06/04 06:36:40;;;;;;;10.75;2.38;;;;;;;28.56;20.59;100554.00;5096484;28;20027;-69
2022/06/04 06:39:07;;;;;;;8.65;3.35;;;;;;;28.58;20.95;100548.81;5095458;28;20028;-69
2022/06/04 06:41:34;;;;;;;11.75;2.47;;;;;;;28.34;21.36;100554.25;5097308;28;20081;-69
2022/06/04 06:44:01;;;;;;;11.85;2.53;;;;;;;28.24;21.65;100548.19;5091040;28;20478;-69
2022/06/04 06:46:35;;;;;;;9.32;2.40;;;;;;;28.18;21.89;100546.94;5089122;28;20614;-69
2022/06/04 06:49:10;;;;;;;13.73;5.95;;;;;;;28.29;21.68;100561.00;5096705;28;20067;-69
2022/06/04 06:51:42;;;;;;;8.63;2.50;;;;;;;28.17;21.74;100567.69;5095121;28;20454;-69
2022/06/04 06:54:08;;;;;;;10.90;2.13;;;;;;;28.18;21.55;100554.50;5084608;28;20089;-68
2022/06/04 06:56:41;;;;;;;9.23;2.20;;;;;;;27.94;21.79;100556.75;5094184;28;20017;-69
2022/06/04 06:59:08;;;;;;;10.32;3.28;;;;;;;28.00;21.79;100559.97;5077705;28;20028;-68
2022/06/04 07:01:37;;;;;;;6.75;2.10;;;;;;;27.96;21.51;100565.53;5086352;28;20107;-67
2022/06/04 07:04:05;;;;;;;5.90;2.25;;;;;;;27.96;21.57;100561.94;5098089;28;20033;-68
2022/06/04 07:06:32;;;;;;;7.32;1.80;;;;;;;27.90;21.59;100561.50;5097064;28;20042;-68
2022/06/04 07:08:59;;;;;;;7.68;1.70;;;;;;;28.03;21.25;100552.81;5096553;28;20035;-68
2022/06/04 07:11:27;;;;;;;12.73;2.00;;;;;;;28.19;20.72;100568.13;5095904;28;20012;-67
2022/06/04 07:13:54;;;;;;;5.25;1.90;;;;;;;28.39;20.02;100543.53;5096149;28;20038;-69
2022/06/04 07:16:21;;;;;;;8.20;2.50;;;;;;;28.46;20.00;100553.94;5094840;28;20097;-68
2022/06/04 07:18:48;;;;;;;7.82;2.60;;;;;;;28.29;20.17;100549.84;5096343;28;20032;-68
2022/06/04 07:21:15;;;;;;;9.10;2.78;;;;;;;28.34;20.15;100541.06;5094402;28;20068;-68
2022/06/04 07:23:42;;;;;;;9.55;2.28;;;;;;;28.25;20.42;100549.81;5095635;28;20107;-67
2022/06/04 07:26:09;;;;;;;8.13;2.33;;;;;;;28.15;20.13;100544.13;5094724;28;20438;-67
2022/06/04 07:28:39;;;;;;;7.32;1.95;;;;;;;28.06;20.50;100552.84;5093194;28;20080;-67
2022/06/04 07:31:07;;;;;;;5.43;1.70;;;;;;;27.89;20.60;100553.50;5094950;28;20040;-68
2022/06/04 07:33:34;;;;;;;10.90;1.90;;;;;;;27.96;20.52;100554.34;5095787;28;20032;-68
2022/06/04 07:36:01;;;;;;;7.25;1.65;;;;;;;27.89;20.71;100551.53;5093980;28;20044;-67
2022/06/04 07:38:28;;;;;;;6.32;1.75;;;;;;;27.72;20.90;100562.53;5095978;28;20502;-68
2022/06/04 07:40:55;;;;;;;10.38;1.88;;;;;;;27.56;20.94;100554.38;5094721;28;20114;-68
2022/06/04 07:43:21;;;;;;;10.90;1.50;;;;;;;27.54;21.27;100553.97;5094725;28;20024;-67
2022/06/04 07:45:48;;;;;;;7.70;1.73;;;;;;;27.18;21.57;100556.38;5094629;28;20066;-68
2022/06/04 07:48:15;;;;;;;13.85;1.92;;;;;;;26.86;22.20;100555.16;5082159;28;20092;-68
2022/06/04 07:50:42;;;;;;;13.70;2.90;;;;;;;26.50;22.52;100557.47;5092253;28;20032;-67
2022/06/04 07:53:08;;;;;;;9.10;2.25;;;;;;;27.27;21.54;100554.06;5074181;28;20020;-67
2022/06/04 07:55:43;;;;;;;13.00;2.70;;;;;;;27.28;21.24;100555.66;5091395;28;20101;-68
2022/06/04 07:58:10;;;;;;;13.20;2.25;;;;;;;27.29;21.04;100559.25;5090021;28;20483;-70
2022/06/04 08:00:38;;;;;;;13.30;2.60;;;;;;;27.39;20.97;100569.75;5092502;28;20066;-70
2022/06/04 08:03:07;;;;;;;15.02;2.67;;;;;;;26.98;21.16;100566.88;5094293;28;20036;-67
2022/06/04 08:05:34;;;;;;;17.90;4.47;;;;;;;26.64;31.76;100574.41;5093150;28;20137;-68
2022/06/04 08:08:01;;;;;;;33.72;6.13;;;;;;;26.08;35.57;100572.34;5095028;28;20051;-68
2022/06/04 08:10:28;;;;;;;26.08;5.10;;;;;;;25.84;36.40;100570.72;5094700;28;20024;-68
2022/06/04 08:12:57;;;;;;;30.83;5.95;;;;;;;25.68;36.99;100584.00;5094316;28;20034;-70
2022/06/04 08:15:24;;;;;;;27.95;6.40;;;;;;;25.54;40.89;100584.50;5093130;28;20036;-70
2022/06/04 08:17:51;;;;;;;35.92;8.55;;;;;;;25.25;42.86;100587.91;5093987;28;20051;-71
2022/06/04 08:20:19;;;;;;;32.85;7.35;;;;;;;25.12;43.82;100589.22;5093049;28;20031;-70
2022/06/04 08:22:45;;;;;;;41.53;8.10;;;;;;;24.98;46.70;100584.16;5093998;28;20123;-70
2022/06/04 08:25:13;;;;;;;37.95;7.70;;;;;;;24.98;48.30;100589.72;5094213;28;20036;-70
2022/06/04 08:27:40;;;;;;;25.98;7.47;;;;;;;24.92;49.70;100583.63;5092457;28;20428;-70
2022/06/04 08:30:07;;;;;;;28.50;7.65;;;;;;;24.89;49.66;100589.13;5094672;28;20115;-69
2022/06/04 08:32:34;;;;;;;32.25;8.13;;;;;;;24.75;50.66;100597.94;5093188;28;20073;-69
2022/06/04 08:35:01;;;;;;;31.40;9.10;;;;;;;24.57;51.38;100591.19;5092682;28;20526;-69
2022/06/04 08:37:27;;;;;;;32.63;9.68;;;;;;;24.45;52.43;100589.34;5093044;28;20051;-69
2022/06/04 08:39:54;;;;;;;33.38;9.15;;;;;;;24.48;52.53;100596.16;5075987;28;20097;-70
2022/06/04 08:42:39;;;;;;;36.15;8.93;;;;;;;24.37;51.16;100593.13;5094000;28;20402;-69
2022/06/04 08:45:08;;;;;;;;;;;;;;;24.43;51.06;100599.22;5093422;28;20394;-69
2022/06/04 08:47:44;;;;;;;18.23;7.32;;;;;;;24.36;53.93;100608.19;5093340;28;19915;-69
2022/06/04 08:50:18;;;;;;;32.75;8.18;;;;;;;24.27;54.43;100602.00;5075428;28;20421;-69
2022/06/04 08:52:44;;;;;;;28.25;7.80;;;;;;;24.11;53.55;100602.00;5094055;28;20096;-69
2022/06/04 08:58:26;;;;;;;31.80;8.05;;;;;;;24.01;57.75;100596.97;5092343;28;20035;-69
2022/06/04 09:01:02;;;;;;;25.48;7.60;;;;;;;24.01;57.93;100605.31;5093950;28;20107;-70
2022/06/04 09:03:58;;;;;;;26.08;7.20;;;;;;;24.02;57.01;100609.69;5092630;28;20025;-69
2022/06/04 09:06:37;;;;;;;28.45;8.10;;;;;;;24.03;56.38;100600.19;5093260;28;20067;-69
2022/06/04 09:09:16;;;;;;;34.97;7.47;;;;;;;24.03;59.15;100600.19;5076980;28;20028;-70
2022/06/04 09:11:55;;;;;;;24.88;6.97;;;;;;;23.91;59.33;100595.56;5092416;28;20497;-70
2022/06/04 09:14:38;;;;;;;34.22;7.50;;;;;;;23.91;59.77;100598.34;5092381;28;20127;-70
2022/06/04 09:17:23;;;;;;;26.30;6.90;;;;;;;23.76;59.25;100597.16;5078215;28;20056;-70
2022/06/04 09:19:56;;;;;;;22.23;6.90;;;;;;;23.77;60.52;100604.31;5093092;28;20035;-70
2022/06/04 09:22:34;;;;;;;28.90;7.63;;;;;;;23.73;61.41;100614.53;5093341;28;20048;-70
2022/06/04 09:25:01;;;;;;;27.65;7.18;;;;;;;23.67;61.52;100620.66;5077311;28;20085;-69
2022/06/04 09:27:30;;;;;;;23.83;7.18;;;;;;;23.57;61.01;100615.66;5093410;28;20570;-70
2022/06/04 09:30:12;;;;;;;29.67;8.00;;;;;;;23.49;62.05;100609.06;5091932;28;20089;-70
2022/06/04 09:32:58;;;;;;;21.55;6.85;;;;;;;23.43;62.53;100614.06;5092039;28;20071;-70
2022/06/04 09:35:30;;;;;;;31.85;7.32;;;;;;;23.46;63.04;100607.00;5092401;28;20035;-69
2022/06/04 09:37:57;;;;;;;26.58;6.75;;;;;;;23.25;61.03;100601.66;5092060;28;20028;-69
2022/06/04 09:40:27;;;;;;;24.50;6.40;;;;;;;23.30;62.22;100614.47;5092188;28;20024;-69
2022/06/04 09:43:05;;;;;;;21.40;6.20;;;;;;;23.45;61.44;100613.72;5093150;28;20028;-69
2022/06/04 09:45:32;;;;;;;25.60;6.97;;;;;;;23.46;62.78;100620.88;5092630;28;20039;-69
2022/06/04 09:48:00;;;;;;;19.92;6.57;;;;;;;23.52;62.76;100628.59;5091339;28;20063;-70
2022/06/04 09:50:34;;;;;;;21.08;6.50;;;;;;;23.44;62.78;100625.97;5089858;28;20043;-69
2022/06/04 09:53:20;;;;;;;24.83;7.57;;;;;;;23.58;62.99;100622.81;5075335;28;20055;-70
2022/06/04 09:55:59;;;;;;;28.23;8.02;;;;;;;23.49;62.66;100612.63;5089895;28;20482;-69
2022/06/04 09:58:34;;;;;;;22.95;7.28;;;;;;;23.36;62.19;100611.09;5090742;28;20081;-69
2022/06/04 10:01:07;;;;;;;24.00;7.70;;;;;;;23.30;63.54;100622.78;5075187;28;20031;-69
2022/06/04 10:03:37;;;;;;;28.92;8.13;;;;;;;23.19;63.98;100623.31;5090067;28;20040;-69
2022/06/04 10:06:23;;;;;;;27.05;8.45;;;;;;;23.33;63.49;100620.09;5074359;28;20047;-69
2022/06/04 10:11:59;;;;;;;30.02;8.45;;;;;;;23.29;64.32;100618.41;5092605;28;20028;-68
2022/06/04 10:14:30;;;;;;;29.90;8.57;;;;;;;23.44;63.58;100621.22;5092803;28;20119;-67
2022/06/04 10:16:56;;;;;;;23.98;7.88;;;;;;;23.40;64.54;100622.28;5075708;28;20035;-68
2022/06/04 10:19:24;;;;;;;28.83;8.00;;;;;;;23.17;65.08;100617.31;5093191;28;20052;-68
2022/06/04 10:22:12;;;;;;;23.88;7.38;;;;;;;23.04;66.14;100621.28;5092999;28;20482;-68
2022/06/04 10:24:54;;;;;;;20.35;7.63;;;;;;;23.01;65.80;100619.22;5093084;28;20035;-69
2022/06/04 10:27:24;;;;;;;25.85;7.30;;;;;;;22.99;65.06;100621.53;5091894;28;20050;-69
2022/06/04 10:30:25;;;;;;;24.15;7.53;;;;;;;23.06;64.84;100620.91;5093063;28;20036;-68
2022/06/04 10:32:55;;;;;;;22.42;6.40;;;;;;;23.12;63.99;100622.28;5093209;28;20031;-68
2022/06/04 10:35:43;;;;;;;25.42;5.95;;;;;;;23.03;62.92;100629.94;5091861;28;20028;-68
2022/06/04 10:38:45;;;;;;;25.50;6.28;;;;;;;22.96;62.22;100630.53;5073061;28;20040;-68
2022/06/04 10:41:27;;;;;;;23.20;5.63;;;;;;;23.07;60.74;100622.53;5061171;28;20090;-67
2022/06/04 10:44:09;;;;;;;18.63;5.47;;;;;;;22.95;60.24;100625.34;5091902;28;20547;-68
2022/06/04 10:46:59;;;;;;;17.52;4.88;;;;;;;23.04;58.58;100631.56;5093099;28;20040;-68
2022/06/04 10:49:29;;;;;;;16.42;4.55;;;;;;;22.90;58.17;100627.19;5091948;28;20465;-68
2022/06/04 10:52:01;;;;;;;19.65;5.25;;;;;;;23.21;57.15;100629.31;5092980;28;20478;-68
2022/06/04 10:54:56;;;;;;;13.60;4.72;;;;;;;23.07;57.49;100623.34;5091787;28;20043;-67
2022/06/04 10:58:04;;;;;;;18.73;5.15;;;;;;;23.01;57.94;100626.72;5093000;28;20039;-68
2022/06/04 11:01:06;;;;;;;16.17;4.88;;;;;;;22.84;58.22;100638.88;5092737;28;20384;-68
2022/06/04 11:03:56;;;;;;;22.13;5.20;;;;;;;22.67;58.99;100631.59;5093027;28;20036;-68
2022/06/04 11:06:33;;;;;;;23.70;5.15;;;;;;;22.44;59.74;100642.38;5092436;28;20106;-68
2022/06/04 11:09:15;;;;;;;20.55;5.82;;;;;;;22.43;59.91;100637.94;5092865;28;20028;-68
2022/06/04 11:11:58;;;;;;;17.60;6.00;;;;;;;22.42;60.21;100644.66;5093009;28;20550;-68
2022/06/04 11:14:42;;;;;;;24.70;6.95;;;;;;;22.36;60.24;100648.00;5095229;28;20078;-68
2022/06/04 11:17:22;;;;;;;25.10;6.88;;;;;;;22.35;61.28;100655.50;5096801;28;20036;-68
2022/06/04 11:20:05;;;;;;;24.80;6.70;;;;;;;22.32;60.64;100661.75;5096786;28;20032;-68
2022/06/04 11:22:38;;;;;;;21.55;7.20;;;;;;;22.28;60.85;100660.81;5100019;28;20047;-67
2022/06/04 11:25:27;;;;;;;25.23;7.70;;;;;;;22.34;60.30;100655.84;5103518;28;20094;-66
2022/06/04 11:28:08;;;;;;;25.63;6.80;;;;;;;22.44;59.18;100656.22;5104261;28;20486;-67
2022/06/04 11:30:53;;;;;;;23.15;7.05;;;;;;;22.35;59.36;100655.50;5097476;28;20062;-68
2022/06/04 11:33:52;;;;;;;25.35;8.07;;;;;;;22.38;58.39;100660.34;5096329;28;20487;-67
2022/06/04 11:36:22;;;;;;;23.20;11.50;;;;;;;22.24;58.23;100655.13;5095966;28;20040;-67
2022/06/04 11:38:48;;;;;;;33.42;16.80;;;;;;;22.25;58.16;100661.47;5096053;28;20036;-68
2022/06/04 11:41:33;;;;;;;29.73;16.08;;;;;;;22.10;58.72;100673.25;5095164;28;20063;-69
2022/06/04 11:44:01;;;;;;;29.80;14.87;;;;;;;21.91;58.94;100669.03;5095984;28;20034;-68
2022/06/04 11:46:48;;;;;;;33.33;15.32;;;;;;;21.91;59.19;100677.34;5094882;28;20504;-68
2022/06/04 11:49:24;;;;;;;40.60;24.25;;;;;;;21.91;58.74;100676.53;5096174;28;20032;-68
2022/06/04 11:51:57;;;;;;;50.80;24.45;;;;;;;21.87;58.78;100673.63;5096097;28;20074;-68
2022/06/04 11:54:42;;;;;;;33.40;14.40;;;;;;;21.93;58.38;100677.00;5096093;28;20040;-68
2022/06/04 11:57:20;;;;;;;22.73;9.07;;;;;;;21.91;58.77;100671.81;5094543;28;20032;-68